Time;durP1;ratioP1;P1;durP2;ratioP2;P2;SDS_P1;SDS_P2;PMS_P1;PMS_P2;Temp;Humidity;BMP_temperature;BMP_pressure;BME280_temperature;BME280_humidity;BME280_pressure;Samples;Min_cycle;Max_cycle;Signal;HPM_P1;HPM_P2
2023/05/14 00:02:07;;;;;;;13.10;9.70;;;;;;;16.61;50.65;101183.98;106234;1260;60417;-66
2023/05/14 00:04:34;;;;;;;14.10;9.30;;;;;;;16.56;49.95;101184.29;106225;1254;67328;-66
2023/05/14 00:07:01;;;;;;;13.90;9.90;;;;;;;16.53;49.79;101180.98;106150;1254;63894;-63
2023/05/14 00:09:29;;;;;;;12.90;9.40;;;;;;;16.51;49.58;101179.56;106249;1257;64954;-63
2023/05/14 00:11:56;;;;;;;11.40;9.00;;;;;;;16.50;49.68;101183.20;106286;1257;59942;-66
2023/05/14 00:14:23;;;;;;;13.10;9.60;;;;;;;16.50;50.01;101182.13;106263;1254;60508;-65
2023/05/14 00:16:50;;;;;;;13.00;8.90;;;;;;;16.47;49.33;101178.90;106120;1255;66097;-63
2023/05/14 00:19:17;;;;;;;14.70;9.20;;;;;;;16.39;47.88;101173.27;106250;1260;62659;-65
2023/05/14 00:21:46;;;;;;;12.50;8.70;;;;;;;16.31;46.44;101173.83;106247;1254;66194;-65
2023/05/14 00:24:13;;;;;;;12.50;9.30;;;;;;;16.26;46.65;101178.22;106241;1260;60443;-66
2023/05/14 00:26:40;;;;;;;13.00;9.30;;;;;;;16.24;47.61;101181.58;106291;1258;60427;-63
2023/05/14 00:29:07;;;;;;;13.80;9.90;;;;;;;16.22;47.88;101181.58;106283;1259;67858;-64
2023/05/14 00:31:34;;;;;;;15.20;10.30;;;;;;;16.22;48.40;101186.33;106270;1259;62825;-63
2023/05/14 00:34:02;;;;;;;14.30;10.50;;;;;;;16.23;48.61;101183.45;106169;1254;66508;-63
2023/05/14 00:36:28;;;;;;;13.10;10.10;;;;;;;16.23;48.69;101184.63;106184;1254;61589;-67
2023/05/14 00:38:55;;;;;;;13.50;9.90;;;;;;;16.24;48.47;101188.29;106148;1260;60444;-66
2023/05/14 00:41:22;;;;;;;16.00;9.80;;;;;;;16.24;48.24;101190.41;106195;1254;67594;-65
2023/05/14 00:43:49;;;;;;;11.80;9.50;;;;;;;16.23;47.60;101187.70;106269;1254;63791;-64
2023/05/14 00:46:16;;;;;;;12.40;10.00;;;;;;;16.19;46.97;101187.17;106266;1260;65835;-66
2023/05/14 00:48:43;;;;;;;14.50;10.60;;;;;;;16.14;46.74;101191.33;106249;1258;61038;-65
2023/05/14 00:51:10;;;;;;;14.30;10.10;;;;;;;16.09;46.89;101188.70;106272;1252;60576;-65
2023/05/14 00:53:38;;;;;;;15.00;9.70;;;;;;;16.03;47.06;101186.77;106198;1259;67568;-64
2023/05/14 00:56:05;;;;;;;14.10;9.70;;;;;;;15.98;47.12;101182.10;106167;1262;63855;-65
2023/05/14 00:58:32;;;;;;;15.00;10.10;;;;;;;15.95;47.33;101181.65;106279;1259;66177;-63
2023/05/14 01:00:59;;;;;;;15.00;9.10;;;;;;;15.94;47.32;101178.92;106285;1260;60444;-65
2023/05/14 01:03:27;;;;;;;16.00;9.90;;;;;;;15.95;47.06;101177.80;106385;1254;59292;-65
2023/05/14 01:06:02;;;;;;;13.10;8.70;;;;;;;15.96;46.65;101175.96;106214;1260;67244;-65
2023/05/14 01:08:35;;;;;;;14.70;8.80;;;;;;;15.96;46.17;101174.30;106120;1262;62538;-64
2023/05/14 01:11:10;;;;;;;12.40;9.10;;;;;;;15.97;45.62;101172.69;106246;1254;65146;-64
2023/05/14 01:13:41;;;;;;;13.20;8.90;;;;;;;15.95;45.36;101176.34;106231;1255;60571;-66
2023/05/14 01:16:12;;;;;;;12.10;8.50;;;;;;;15.93;45.24;101177.45;106214;1254;60518;-66
2023/05/14 01:18:40;;;;;;;11.50;7.90;;;;;;;15.90;45.04;101176.17;106358;1260;66992;-65
2023/05/14 01:21:37;;;;;;;14.10;8.10;;;;;;;15.87;44.90;101179.77;106218;1254;64022;-64
2023/05/14 01:24:04;;;;;;;10.70;7.90;;;;;;;15.86;45.03;101182.19;106551;1259;65912;-67
2023/05/14 01:26:31;;;;;;;13.70;8.80;;;;;;;15.86;44.96;101181.61;106212;1254;61667;-66
2023/05/14 01:29:20;;;;;;;13.20;8.10;;;;;;;15.87;44.58;101181.19;106259;1254;60451;-65
2023/05/14 01:31:49;;;;;;;11.20;8.50;;;;;;;15.87;44.73;101190.39;106315;1254;66336;-65
2023/05/14 01:34:22;;;;;;;12.90;8.40;;;;;;;15.88;45.30;101197.90;106384;1251;63867;-66
2023/05/14 01:36:50;;;;;;;13.60;8.60;;;;;;;15.89;45.20;101199.16;106377;1254;66084;-64
2023/05/14 01:39:18;;;;;;;15.30;8.70;;;;;;;15.91;45.53;101194.95;106267;1257;60447;-64
2023/05/14 01:41:45;;;;;;;17.30;9.00;;;;;;;15.91;45.82;101191.23;106465;1252;60497;-65
2023/05/14 01:44:12;;;;;;;11.10;7.70;;;;;;;15.91;46.11;101188.98;106430;1254;67297;-65
2023/05/14 01:46:39;;;;;;;11.00;8.00;;;;;;;15.90;46.42;101183.77;106157;1251;63761;-66
2023/05/14 01:49:07;;;;;;;11.10;7.90;;;;;;;15.89;46.30;101183.12;106386;1259;64917;-66
2023/05/14 01:51:34;;;;;;;15.90;9.10;;;;;;;15.87;46.10;101183.34;106506;1257;60453;-66
2023/05/14 01:54:01;;;;;;;11.50;8.50;;;;;;;15.83;45.95;101178.89;106303;1251;59295;-66
2023/05/14 01:56:28;;;;;;;15.10;8.60;;;;;;;15.78;45.94;101177.16;106334;1258;67153;-64
2023/05/14 01:58:55;;;;;;;14.70;8.60;;;;;;;15.75;46.05;101177.45;106334;1251;63582;-64
2023/05/14 02:01:24;;;;;;;12.80;8.00;;;;;;;15.71;46.10;101177.09;106295;1254;66021;-63
2023/05/14 02:03:52;;;;;;;12.70;8.50;;;;;;;15.67;46.12;101176.16;106305;1253;60519;-63
2023/05/14 02:06:19;;;;;;;13.40;9.10;;;;;;;15.65;46.35;101175.52;106294;1254;60334;-65
2023/05/14 02:08:47;;;;;;;12.10;8.50;;;;;;;15.62;46.72;101176.62;106456;1254;67505;-65
2023/05/14 02:11:14;;;;;;;11.90;8.20;;;;;;;15.58;47.13;101177.48;106356;1256;62633;-64
2023/05/14 02:13:41;;;;;;;11.10;8.10;;;;;;;15.53;48.10;101179.17;106330;1251;66043;-63
2023/05/14 02:16:08;;;;;;;12.70;8.50;;;;;;;15.48;48.80;101179.30;106447;1257;59825;-64
2023/05/14 02:18:35;;;;;;;14.80;9.20;;;;;;;15.42;49.01;101182.10;106394;1256;59550;-64
2023/05/14 02:21:02;;;;;;;10.30;8.20;;;;;;;15.35;49.18;101182.33;106468;1251;67163;-66
2023/05/14 02:23:29;;;;;;;12.00;8.30;;;;;;;15.29;49.41;101184.30;106305;1251;71786;-64
2023/05/14 02:26:08;;;;;;;11.80;9.00;;;;;;;15.24;50.01;101181.54;106332;1254;66283;-64
2023/05/14 02:28:35;;;;;;;12.30;8.60;;;;;;;15.20;50.49;101175.40;106392;1255;60528;-66
2023/05/14 02:31:02;;;;;;;12.50;9.20;;;;;;;15.18;50.33;101176.27;106312;1251;60610;-63
2023/05/14 02:33:29;;;;;;;12.70;9.00;;;;;;;15.17;50.39;101179.86;106444;1254;68114;-65
2023/05/14 02:35:56;;;;;;;11.00;8.10;;;;;;;15.16;50.71;101176.98;106488;1251;63824;-66
2023/05/14 02:38:25;;;;;;;12.10;8.20;;;;;;;15.14;51.03;101176.44;106350;1251;66178;-65
2023/05/14 02:40:52;;;;;;;10.80;8.60;;;;;;;15.15;51.18;101174.08;106391;1251;60491;-66
2023/05/14 02:43:18;;;;;;;14.30;9.50;;;;;;;15.15;51.25;101172.97;106493;1256;60448;-63
2023/05/14 02:45:46;;;;;;;13.80;8.90;;;;;;;15.16;51.41;101170.77;106395;1251;67235;-64
2023/05/14 02:48:13;;;;;;;13.70;8.10;;;;;;;15.17;51.67;101172.14;106601;1251;63933;-64
2023/05/14 02:50:40;;;;;;;14.00;8.50;;;;;;;15.15;51.63;101171.34;106457;1257;65089;-64
2023/05/14 02:53:07;;;;;;;11.00;8.40;;;;;;;15.14;51.62;101174.96;106499;1254;60469;-65
2023/05/14 02:55:35;;;;;;;12.20;8.80;;;;;;;15.13;51.85;101182.33;106410;1251;60488;-65
2023/05/14 02:58:02;;;;;;;13.20;8.90;;;;;;;15.11;52.16;101184.24;106750;1251;66256;-65
2023/05/14 03:00:29;;;;;;;11.10;8.20;;;;;;;15.11;52.25;101180.25;106462;1251;62734;-65
2023/05/14 03:02:56;;;;;;;10.50;8.20;;;;;;;15.09;52.24;101178.31;106385;1252;66164;-64
2023/05/14 03:05:24;;;;;;;14.00;8.70;;;;;;;15.08;52.10;101171.83;106550;1251;60466;-64
2023/05/14 03:07:52;;;;;;;10.90;8.10;;;;;;;15.08;52.17;101168.48;106504;1251;60393;-66
2023/05/14 03:10:19;;;;;;;13.30;9.00;;;;;;;15.08;52.53;101170.75;106518;1250;67350;-64
2023/05/14 03:12:47;;;;;;;10.90;8.50;;;;;;;15.10;52.81;101174.86;106432;1251;63753;-65
2023/05/14 03:15:13;;;;;;;13.10;8.80;;;;;;;15.09;52.68;101178.40;106245;1253;74632;-65
2023/05/14 03:17:40;;;;;;;11.80;8.70;;;;;;;15.10;52.71;101180.37;106530;1254;60465;-64
2023/05/14 03:20:08;;;;;;;12.70;8.40;;;;;;;15.10;52.67;101178.36;106557;1252;60469;-65
2023/05/14 03:22:35;;;;;;;13.50;8.40;;;;;;;15.11;52.65;101177.16;106281;1258;67588;-66
2023/05/14 03:25:02;;;;;;;11.50;8.00;;;;;;;15.14;52.77;101180.16;106340;1258;64057;-65
2023/05/14 03:27:29;;;;;;;12.30;8.50;;;;;;;15.17;52.74;101175.45;106427;1254;74144;-64
2023/05/14 03:29:56;;;;;;;11.10;8.10;;;;;;;15.21;52.43;101173.34;106464;1251;60471;-64
2023/05/14 03:32:23;;;;;;;13.80;8.30;;;;;;;15.24;52.18;101172.15;106412;1256;60831;-63
2023/05/14 03:34:50;;;;;;;11.30;8.80;;;;;;;15.28;52.51;101173.48;106373;1259;67035;-65
2023/05/14 03:37:17;;;;;;;12.90;9.30;;;;;;;15.32;52.58;101174.52;106384;1251;63568;-65
2023/05/14 03:39:44;;;;;;;11.70;8.30;;;;;;;15.36;52.07;101177.65;106536;1253;64861;-64
2023/05/14 03:42:11;;;;;;;12.00;9.20;;;;;;;15.41;51.68;101179.17;106433;1251;60418;-67
2023/05/14 03:44:39;;;;;;;10.90;7.90;;;;;;;15.46;51.36;101181.25;106457;1259;59202;-66
2023/05/14 03:47:07;;;;;;;11.50;7.90;;;;;;;15.52;50.93;101183.92;106483;1251;66093;-63
2023/05/14 03:49:34;;;;;;;10.90;7.70;;;;;;;15.58;50.49;101185.47;106484;1251;63541;-64
2023/05/14 03:52:01;;;;;;;10.50;7.80;;;;;;;15.66;50.07;101187.55;106665;1253;62819;-66
2023/05/14 03:54:28;;;;;;;11.70;7.40;;;;;;;15.76;50.02;101195.95;106403;1259;60540;-65
2023/05/14 03:56:55;;;;;;;11.30;7.80;;;;;;;15.86;50.10;101196.67;106513;1251;60463;-66
2023/05/14 03:59:22;;;;;;;11.90;7.90;;;;;;;15.96;50.04;101195.59;106481;1251;67581;-65
2023/05/14 04:01:49;;;;;;;11.40;7.10;;;;;;;16.06;49.98;101191.80;106549;1252;63623;-66
2023/05/14 04:04:18;;;;;;;11.40;7.90;;;;;;;16.16;49.83;101192.14;106398;1254;74438;-65
2023/05/14 04:06:45;;;;;;;11.50;7.80;;;;;;;16.26;49.43;101185.65;106463;1256;60549;-64
2023/05/14 04:09:12;;;;;;;9.60;7.20;;;;;;;16.35;49.38;101185.30;106529;1256;60377;-65
2023/05/14 04:11:39;;;;;;;9.00;6.70;;;;;;;16.45;49.35;101186.50;106371;1257;67136;-65
2023/05/14 04:14:06;;;;;;;9.80;7.40;;;;;;;16.56;49.26;101186.77;106450;1258;63831;-65
2023/05/14 04:16:33;;;;;;;11.00;8.00;;;;;;;16.66;49.08;101184.23;106554;1257;65306;-63
2023/05/14 04:19:01;;;;;;;10.40;7.80;;;;;;;16.77;48.85;101184.14;106287;1256;59323;-66
2023/05/14 04:21:28;;;;;;;9.40;6.80;;;;;;;16.88;48.28;101185.75;106359;1251;60662;-67
2023/05/14 04:23:55;;;;;;;11.40;7.40;;;;;;;16.98;47.56;101183.59;106444;1251;66257;-65
2023/05/14 04:26:22;;;;;;;12.90;6.50;;;;;;;17.10;47.14;101183.00;106339;1250;63517;-65
2023/05/14 04:28:49;;;;;;;10.40;6.70;;;;;;;17.21;46.91;101180.01;106459;1257;66247;-64
2023/05/14 04:31:16;;;;;;;12.20;6.00;;;;;;;17.33;46.73;101180.81;106351;1256;60437;-64
2023/05/14 04:33:43;;;;;;;10.40;6.60;;;;;;;17.45;46.37;101176.84;106350;1251;60514;-63
2023/05/14 04:36:11;;;;;;;13.30;7.00;;;;;;;17.57;46.30;101178.85;106462;1251;66228;-64
2023/05/14 04:38:38;;;;;;;9.20;6.10;;;;;;;17.69;46.19;101176.58;106567;1256;63605;-63
2023/05/14 04:41:06;;;;;;;9.00;6.30;;;;;;;17.82;45.66;101179.09;109269;1251;66461;-64
2023/05/14 04:43:33;;;;;;;10.60;7.50;;;;;;;17.94;45.32;101182.37;106871;1257;60539;-67
2023/05/14 04:45:59;;;;;;;9.90;6.50;;;;;;;18.15;44.81;101181.69;106603;1250;60494;-65
2023/05/14 04:48:27;;;;;;;8.50;6.00;;;;;;;18.35;44.32;101184.12;106533;1251;67181;-65
2023/05/14 04:50:53;;;;;;;8.20;5.40;;;;;;;18.51;43.70;101186.24;106688;1257;62371;-66
2023/05/14 04:53:20;;;;;;;6.20;4.70;;;;;;;18.66;42.96;101185.30;106642;1251;65865;-65
2023/05/14 04:55:48;;;;;;;8.80;5.40;;;;;;;18.80;42.40;101182.34;106684;1256;61272;-63
2023/05/14 04:58:14;;;;;;;8.50;5.20;;;;;;;18.89;42.11;101183.74;106550;1251;60421;-65
2023/05/14 05:00:41;;;;;;;9.90;5.70;;;;;;;18.96;42.01;101185.33;106641;1256;66739;-65
2023/05/14 05:03:08;;;;;;;9.10;5.70;;;;;;;19.07;42.02;101182.71;106596;1251;63831;-66
2023/05/14 05:05:36;;;;;;;7.90;5.30;;;;;;;19.15;42.21;101179.05;106583;1251;73652;-65
2023/05/14 05:08:03;;;;;;;10.40;5.70;;;;;;;19.33;41.73;101177.96;106436;1255;60324;-65
2023/05/14 05:10:30;;;;;;;8.30;5.50;;;;;;;19.43;41.39;101178.11;106555;1251;60411;-65
2023/05/14 05:12:57;;;;;;;7.90;5.70;;;;;;;19.44;42.75;101176.58;106512;1251;67196;-65
2023/05/14 05:15:24;;;;;;;8.40;5.40;;;;;;;19.48;43.22;101177.95;106565;1251;63458;-71
2023/05/14 05:17:52;;;;;;;8.20;5.30;;;;;;;19.53;42.66;101180.10;106397;1254;66114;-66
2023/05/14 05:20:19;;;;;;;7.60;5.30;;;;;;;19.57;42.02;101178.61;106523;1251;60552;-65
2023/05/14 05:22:46;;;;;;;7.10;5.40;;;;;;;19.60;41.16;101177.36;106583;1251;60674;-65
2023/05/14 05:25:13;;;;;;;9.00;5.10;;;;;;;19.68;40.47;101177.75;106552;1252;66883;-66
2023/05/14 05:27:40;;;;;;;7.70;4.90;;;;;;;19.82;39.13;101182.17;106407;1251;64028;-66
2023/05/14 05:30:08;;;;;;;8.20;4.70;;;;;;;19.76;38.80;101181.71;106486;1256;65754;-66
2023/05/14 05:32:35;;;;;;;11.50;5.30;;;;;;;19.78;38.43;101183.14;106327;1266;60319;-67
2023/05/14 05:35:02;;;;;;;7.90;4.70;;;;;;;19.75;38.12;101184.89;106443;1251;60332;-65
2023/05/14 05:37:30;;;;;;;7.90;5.00;;;;;;;19.77;38.05;101183.66;106516;1256;67114;-66
2023/05/14 05:39:57;;;;;;;7.40;4.40;;;;;;;19.80;38.03;101187.23;106451;1251;64836;-66
2023/05/14 05:42:25;;;;;;;6.40;4.50;;;;;;;19.84;38.16;101183.45;106039;1257;64758;-64
2023/05/14 05:44:52;;;;;;;7.60;4.70;;;;;;;19.89;37.48;101183.05;106114;1257;60433;-60
2023/05/14 05:47:18;;;;;;;8.20;5.30;;;;;;;19.94;38.47;101180.90;107189;1251;59195;-58
2023/05/14 05:49:45;;;;;;;9.70;5.60;;;;;;;20.02;38.71;101180.10;109290;1250;67507;-59
2023/05/14 05:52:12;;;;;;;12.30;5.00;;;;;;;20.12;38.67;101182.09;109330;1251;63962;-59
2023/05/14 05:54:39;;;;;;;8.30;4.60;;;;;;;20.21;37.90;101181.79;106007;1251;66551;-64
2023/05/14 05:57:06;;;;;;;8.80;4.70;;;;;;;20.29;37.19;101182.33;106497;1251;60347;-66
2023/05/14 05:59:33;;;;;;;7.70;4.90;;;;;;;20.37;36.64;101183.83;106429;1258;60561;-66
2023/05/14 06:02:00;;;;;;;6.40;4.60;;;;;;;20.44;36.47;101184.69;106614;1251;66451;-69
2023/05/14 06:04:27;;;;;;;10.30;5.00;;;;;;;20.56;36.54;101183.01;106627;1250;62505;-69
2023/05/14 06:06:54;;;;;;;7.70;4.30;;;;;;;20.77;36.55;101183.17;106519;1256;66166;-65
2023/05/14 06:09:21;;;;;;;7.00;4.80;;;;;;;20.89;36.27;101181.88;106530;1256;60540;-66
2023/05/14 06:11:48;;;;;;;7.50;4.20;;;;;;;20.85;36.25;101180.50;106493;1256;59113;-53
2023/05/14 06:14:15;;;;;;;7.10;4.20;;;;;;;20.82;36.38;101181.79;105186;1257;68630;-60
2023/05/14 06:16:42;;;;;;;9.20;4.50;;;;;;;20.86;36.33;101181.80;105221;1251;63645;-61
2023/05/14 06:19:09;;;;;;;8.20;4.50;;;;;;;20.92;36.05;101179.73;109139;1257;65130;-63
2023/05/14 06:21:36;;;;;;;6.50;4.70;;;;;;;20.96;35.78;101181.02;107369;1256;60571;-61
2023/05/14 06:24:04;;;;;;;7.50;4.40;;;;;;;21.03;35.89;101185.27;105305;1257;60532;-60
2023/05/14 06:26:31;;;;;;;8.00;4.70;;;;;;;21.10;36.17;101181.14;105167;1250;66045;-61
2023/05/14 06:28:58;;;;;;;8.30;4.90;;;;;;;21.17;36.29;101180.01;105893;1257;63510;-60
2023/05/14 06:31:25;;;;;;;10.10;4.90;;;;;;;21.24;36.12;101183.30;106826;1251;66150;-60
2023/05/14 06:33:52;;;;;;;6.90;4.60;;;;;;;21.31;36.20;101185.17;105214;1257;60440;-60
2023/05/14 06:36:19;;;;;;;8.90;4.70;;;;;;;21.38;36.43;101184.70;105712;1251;60376;-62
2023/05/14 06:38:46;;;;;;;9.70;5.20;;;;;;;21.44;36.23;101182.04;105419;1257;67652;-61
2023/05/14 06:41:12;;;;;;;7.80;4.90;;;;;;;21.50;35.71;101176.95;105144;1251;63561;-60
2023/05/14 06:43:39;;;;;;;10.90;4.80;;;;;;;21.56;35.39;101175.11;105235;1256;66315;-59
2023/05/14 06:46:06;;;;;;;8.00;4.90;;;;;;;21.61;35.35;101173.75;107761;1256;61166;-60
2023/05/14 06:48:33;;;;;;;9.50;4.30;;;;;;;21.67;35.50;101179.34;105378;1257;60940;-60
2023/05/14 06:51:02;;;;;;;7.60;5.00;;;;;;;21.73;35.68;101179.94;103309;1250;2951105;-61
2023/05/14 06:55:46;;;;;;;7.40;4.40;;;;;;;21.70;35.53;101174.91;102220;1291;600488;-59
2023/05/14 06:58:13;;;;;;;9.80;4.90;;;;;;;21.92;34.45;101175.52;104283;1264;59111;-60
2023/05/14 07:00:41;;;;;;;8.00;4.70;;;;;;;22.00;34.53;101177.50;104287;1269;59327;-59
2023/05/14 07:03:08;;;;;;;7.20;4.60;;;;;;;22.06;34.83;101175.23;104226;1269;65507;-60
2023/05/14 07:05:35;;;;;;;6.50;4.20;;;;;;;22.14;34.34;101177.52;104233;1269;62450;-59
2023/05/14 07:08:02;;;;;;;9.30;5.20;;;;;;;22.23;34.00;101176.94;106621;1265;198730;-67
2023/05/14 07:10:29;;;;;;;7.20;4.50;;;;;;;22.31;33.74;101177.86;106882;1264;59251;-62
2023/05/14 07:12:56;;;;;;;7.40;4.60;;;;;;;22.38;33.58;101174.69;105337;1264;59171;-61
2023/05/14 07:15:23;;;;;;;7.50;4.20;;;;;;;22.44;33.36;101172.59;104596;1266;64571;-60
2023/05/14 07:17:50;;;;;;;7.10;4.30;;;;;;;22.48;33.39;101171.92;104461;1267;63664;-61
2023/05/14 07:20:17;;;;;;;6.90;4.40;;;;;;;22.52;33.66;101167.52;104520;1264;66409;-60
2023/05/14 07:22:44;;;;;;;8.10;4.50;;;;;;;22.58;33.48;101166.86;104424;1261;59805;-60
2023/05/14 07:25:11;;;;;;;7.00;4.30;;;;;;;22.62;33.30;101168.05;106141;1263;59685;-60
2023/05/14 07:27:38;;;;;;;6.30;3.80;;;;;;;22.68;33.12;101165.91;104537;1264;66563;-62
2023/05/14 07:30:06;;;;;;;8.80;4.70;;;;;;;22.75;32.69;101164.58;104500;1268;62703;-60
2023/05/14 07:32:33;;;;;;;9.00;3.70;;;;;;;22.85;30.64;101162.45;108472;1263;66098;-62
2023/05/14 07:35:00;;;;;;;7.50;4.10;;;;;;;22.91;30.53;101161.83;106521;1267;59707;-61
2023/05/14 07:37:27;;;;;;;6.50;3.80;;;;;;;22.92;30.19;101158.58;105082;1267;61988;-62
2023/05/14 07:39:55;;;;;;;6.20;3.10;;;;;;;22.99;30.05;101158.71;104402;1263;66728;-61
2023/05/14 07:42:22;;;;;;;6.00;3.00;;;;;;;23.06;29.16;101156.60;105831;1260;63391;-61
2023/05/14 07:45:02;;;;;;;7.10;3.80;;;;;;;23.13;27.56;101159.34;105020;1259;66998;-62
2023/05/14 07:47:29;;;;;;;5.10;2.90;;;;;;;23.17;27.34;101157.70;105038;1259;59627;-60
2023/05/14 07:49:57;;;;;;;6.20;3.30;;;;;;;23.22;27.08;101156.48;105065;1261;60819;-60
2023/05/14 07:52:23;;;;;;;9.60;3.20;;;;;;;23.27;26.41;101156.58;105120;1254;66371;-61
2023/05/14 07:54:54;;;;;;;6.60;3.40;;;;;;;23.31;26.41;101155.88;105562;1264;63836;-60
2023/05/14 07:57:22;;;;;;;6.10;3.20;;;;;;;23.35;26.18;101150.64;109110;1254;66013;-63
2023/05/14 07:59:49;;;;;;;5.40;3.40;;;;;;;23.40;26.62;101151.05;104951;1254;59752;-61
2023/05/14 08:02:16;;;;;;;7.50;3.20;;;;;;;23.45;26.35;101155.84;105031;1254;59627;-61
2023/05/14 08:04:43;;;;;;;11.00;3.50;;;;;;;23.47;25.85;101150.02;105017;1254;65081;-62
2023/05/14 08:07:10;;;;;;;6.50;3.50;;;;;;;23.50;25.97;101149.48;104888;1255;63646;-59
2023/05/14 08:09:37;;;;;;;7.70;3.20;;;;;;;23.53;26.57;101150.11;105153;1254;66049;-59
2023/05/14 08:12:05;;;;;;;8.20;4.20;;;;;;;23.58;26.51;101144.36;105575;1254;59303;-62
2023/05/14 08:14:32;;;;;;;6.40;3.30;;;;;;;23.64;26.29;101140.25;108745;1254;57615;-63
2023/05/14 08:16:59;;;;;;;7.50;3.40;;;;;;;23.70;26.05;101143.71;105972;1254;65597;-62
2023/05/14 08:19:26;;;;;;;7.40;3.60;;;;;;;23.74;26.14;101143.22;109085;1254;64030;-62
2023/05/14 08:21:53;;;;;;;7.90;3.50;;;;;;;23.79;26.26;101137.48;106428;1254;66407;-63
2023/05/14 08:24:20;;;;;;;6.70;3.60;;;;;;;23.85;26.02;101136.54;105216;1254;59512;-63
2023/05/14 08:26:47;;;;;;;7.80;3.60;;;;;;;23.91;26.37;101130.80;105069;1261;59573;-63
2023/05/14 08:29:14;;;;;;;7.40;3.90;;;;;;;23.97;27.18;101132.21;105015;1259;66505;-63
2023/05/14 08:31:42;;;;;;;6.00;3.20;;;;;;;24.02;26.95;101129.36;105267;1254;63775;-63
2023/05/14 08:34:09;;;;;;;6.90;3.90;;;;;;;24.08;25.91;101123.80;106234;1258;74868;-65
2023/05/14 08:36:37;;;;;;;6.00;3.40;;;;;;;24.11;25.93;101121.83;105120;1254;59663;-61
2023/05/14 08:39:06;;;;;;;6.50;3.60;;;;;;;24.14;25.89;101113.63;105680;1254;60953;-65
2023/05/14 08:41:34;;;;;;;5.90;3.60;;;;;;;24.19;25.91;101112.35;105636;1255;65732;-63
2023/05/14 08:44:24;;;;;;;5.30;3.10;;;;;;;24.27;25.59;101111.73;105870;1259;62701;-64
2023/05/14 08:46:51;;;;;;;6.30;3.20;;;;;;;24.36;25.70;101110.19;106287;1257;66177;-60
2023/05/14 08:49:39;;;;;;;5.90;3.70;;;;;;;24.44;24.57;101106.82;105107;1257;59647;-63
2023/05/14 08:52:10;;;;;;;6.00;3.20;;;;;;;24.53;24.60;101105.59;106409;1254;59675;-65
2023/05/14 08:54:37;;;;;;;10.80;3.20;;;;;;;24.61;23.43;101099.91;105600;1255;66462;-65
2023/05/14 08:57:05;;;;;;;7.30;3.10;;;;;;;24.66;23.59;101099.77;109123;1257;63737;-62
2023/05/14 08:59:32;;;;;;;6.80;2.90;;;;;;;24.72;23.59;101102.41;105559;1257;66133;-64
2023/05/14 09:02:01;;;;;;;7.40;3.30;;;;;;;24.80;23.75;101099.39;105056;1255;59765;-67
2023/05/14 09:04:29;;;;;;;6.60;3.30;;;;;;;24.88;23.15;101095.45;109049;1254;57875;-67
2023/05/14 09:06:56;;;;;;;9.30;3.10;;;;;;;24.98;23.25;101094.58;107149;1254;66122;-62
2023/05/14 09:09:25;;;;;;;5.20;3.00;;;;;;;25.08;23.35;101090.23;105066;1260;72997;-65
2023/05/14 09:11:53;;;;;;;5.90;2.80;;;;;;;25.16;23.04;101086.82;105975;1260;66217;-61
2023/05/14 09:14:27;;;;;;;5.40;3.00;;;;;;;25.25;22.97;101086.20;105479;1253;59675;-65
2023/05/14 09:16:54;;;;;;;6.70;3.10;;;;;;;25.36;22.75;101085.62;105288;1251;59564;-61
2023/05/14 09:19:21;;;;;;;8.20;4.10;;;;;;;25.47;22.52;101082.30;106061;1251;66573;-63
2023/05/14 09:21:48;;;;;;;6.30;3.30;;;;;;;25.54;22.69;101078.73;109327;1253;63539;-63
2023/05/14 09:24:20;;;;;;;6.10;3.70;;;;;;;25.65;22.77;101074.73;109312;1251;65127;-58
2023/05/14 09:26:54;;;;;;;9.20;3.40;;;;;;;25.78;22.33;101072.00;107611;1251;59215;-62
2023/05/14 09:29:23;;;;;;;5.50;2.90;;;;;;;25.87;23.19;101066.16;109348;1251;57943;-63
2023/05/14 09:31:50;;;;;;;6.50;2.90;;;;;;;25.98;22.78;101066.80;109236;1254;66776;-64
2023/05/14 09:34:25;;;;;;;5.40;3.10;;;;;;;26.09;22.65;101069.03;107950;1253;64249;-63
2023/05/14 09:37:01;;;;;;;5.50;2.60;;;;;;;26.19;22.42;101065.28;105228;1256;64873;-62
2023/05/14 09:39:28;;;;;;;6.30;3.30;;;;;;;26.25;22.54;101063.49;105298;1250;59751;-68
2023/05/14 09:41:55;;;;;;;6.00;3.50;;;;;;;26.29;22.37;101061.63;106882;1256;62447;-63
2023/05/14 09:44:23;;;;;;;6.10;3.40;;;;;;;26.37;22.95;101057.26;105665;1256;66218;-63
2023/05/14 09:46:50;;;;;;;6.70;4.10;;;;;;;26.44;22.57;101057.44;105367;1257;63755;-64
2023/05/14 09:49:17;;;;;;;7.60;3.80;;;;;;;26.48;22.51;101058.14;105046;1254;64832;-66
2023/05/14 09:51:44;;;;;;;8.60;3.00;;;;;;;26.53;22.40;101055.55;108784;1254;58692;-63
2023/05/14 09:54:11;;;;;;;9.10;3.50;;;;;;;26.55;22.11;101055.34;105138;1258;59663;-63
2023/05/14 09:56:38;;;;;;;6.40;3.60;;;;;;;26.54;22.35;101054.98;105162;1251;65369;-65
2023/05/14 09:59:05;;;;;;;5.90;3.60;;;;;;;26.56;22.04;101054.83;105109;1257;62831;-66
2023/05/14 10:01:32;;;;;;;6.30;2.90;;;;;;;26.58;21.81;101051.95;105563;1257;66134;-65
2023/05/14 10:04:02;;;;;;;6.30;3.40;;;;;;;26.62;21.92;101049.63;105146;1254;59787;-62
2023/05/14 10:06:32;;;;;;;6.90;3.40;;;;;;;26.67;22.08;101053.58;108174;1253;59670;-61
2023/05/14 10:09:02;;;;;;;6.50;3.90;;;;;;;26.74;22.19;101050.31;105827;1251;66500;-61
2023/05/14 10:11:33;;;;;;;5.80;3.20;;;;;;;26.79;22.08;101050.91;108325;1251;63975;-62
2023/05/14 10:14:08;;;;;;;5.30;3.40;;;;;;;26.78;22.07;101051.83;106732;1251;65978;-67
2023/05/14 10:16:44;;;;;;;12.10;3.10;;;;;;;26.74;22.12;101045.88;106349;1254;61941;-64
2023/05/14 10:19:11;;;;;;;5.70;3.00;;;;;;;26.70;22.22;101047.35;105539;1256;59669;-63
2023/05/14 10:21:39;;;;;;;7.90;3.20;;;;;;;26.70;22.44;101042.48;105123;1251;66990;-63
2023/05/14 10:24:07;;;;;;;8.10;3.50;;;;;;;26.73;22.53;101041.48;105296;1253;64020;-64
2023/05/14 10:26:39;;;;;;;6.30;3.20;;;;;;;26.88;22.08;101036.91;106703;1254;66267;-65
2023/05/14 10:29:05;;;;;;;8.40;3.50;;;;;;;27.00;22.22;101031.96;109319;1251;58478;-66
2023/05/14 10:31:49;;;;;;;5.70;3.00;;;;;;;26.90;22.26;101033.42;107587;1254;59912;-64
2023/05/14 10:34:45;;;;;;;6.50;3.30;;;;;;;26.74;22.26;101029.34;105390;1256;66677;-65
2023/05/14 10:37:14;;;;;;;8.90;3.70;;;;;;;26.72;22.12;101033.39;105173;1257;64003;-65
2023/05/14 10:39:45;;;;;;;6.50;3.40;;;;;;;26.78;22.11;101030.86;109377;1251;64690;-64
2023/05/14 10:42:14;;;;;;;7.60;3.20;;;;;;;26.75;22.02;101028.71;106393;1257;59669;-63
2023/05/14 10:44:50;;;;;;;8.50;4.20;;;;;;;26.79;21.57;101027.15;105556;1254;59660;-66
2023/05/14 10:47:17;;;;;;;7.80;3.20;;;;;;;26.82;21.80;101026.73;105264;1253;66473;-64
2023/05/14 10:49:47;;;;;;;6.70;3.60;;;;;;;26.82;21.67;101022.32;105110;1251;65487;-66
2023/05/14 10:52:17;;;;;;;10.40;3.50;;;;;;;26.82;21.92;101022.23;107894;1253;65979;-63
2023/05/14 10:54:51;;;;;;;6.20;3.60;;;;;;;26.80;21.46;101017.30;105407;1254;59628;-67
2023/05/14 10:57:18;;;;;;;7.60;3.70;;;;;;;26.75;21.48;101018.79;106578;1251;59535;-65
2023/05/14 10:59:52;;;;;;;8.30;3.60;;;;;;;26.68;21.20;101023.23;106345;1251;65225;-65
2023/05/14 11:02:26;;;;;;;6.30;3.10;;;;;;;26.65;21.69;101020.40;107086;1251;63747;-65
2023/05/14 11:05:09;;;;;;;8.20;3.50;;;;;;;26.66;21.49;101016.39;106186;1254;66167;-66
2023/05/14 11:07:43;;;;;;;6.20;3.10;;;;;;;26.63;21.39;101018.70;106554;1251;60421;-61
2023/05/14 11:10:11;;;;;;;7.30;2.80;;;;;;;26.58;21.48;101014.23;106625;1251;60473;-66
2023/05/14 11:12:40;;;;;;;7.10;3.20;;;;;;;26.57;21.74;101013.81;106472;1251;65740;-63
2023/05/14 11:15:08;;;;;;;7.70;3.50;;;;;;;26.58;21.33;101009.94;106028;1254;64247;-67
2023/05/14 11:17:36;;;;;;;5.50;3.70;;;;;;;26.59;21.13;101013.05;108984;1251;66187;-69
2023/05/14 11:20:06;;;;;;;7.10;3.70;;;;;;;26.62;21.00;101009.11;106510;1254;60494;-66
2023/05/14 11:22:34;;;;;;;6.30;3.70;;;;;;;26.70;20.68;101007.02;106043;1251;60344;-68